Tiempo atmosférico en la estación meteorológica de Aliseda, Cáceres (321 m.)



Fecha
DESCASC
Temp. máxima en grados centígrados (hora)
DESCASC
Temp. mínima en grados centígrados (hora)
DESCASC
Temp. media en grados centígrados
DESCASC
Racha de viento máxima en m/sg (hora)
DESCASC
Velocidad máxima media en intervalos de 10 minutos(hora)
DESCASC
Precipitaciones diarias en mm
DESCASC
Precipitaciones de 00:00 a 06:00 en mm
DESCASC
Precipitaciones de 06:00 a 12:00 en mm
DESCASC
Precipitaciones de 12:00 a 18:00 en mm
DESCASC
Precipitaciones de 18:00 a 24:00 en mm
DESCASC
18-08-2019 33.3 (18:10) 18.5 (07:50) 25.9 10.28 (18:40) 6.11 (18:40) 0 0 0 0 0
17-08-2019 37.9 (18:10) 20.5 (07:50) 29.2 9.72 (19:00) 4.44 (20:00) 0 0 0 0 0
16-08-2019 38.5 (16:50) 21.9 (07:40) 30.2 8.61 (18:40) 5 (20:10) 0 0 0 0 0
15-08-2019 38 (18:40) 22.3 (00:00) 30.1 7.78 (21:40) 4.44 (22:10) 0 0 0 0 0
14-08-2019 35.9 (17:20) 17.8 (00:00) 26.9 7.78 (19:00) 3.89 (15:30) 0 0 0 0 0
13-08-2019 33.5 (17:00) 15.7 (00:00) 24.6 7.22 (18:40) 4.17 (05:30) 0 0 0 0 0
12-08-2019 29.7 (17:20) 13 (00:00) 21.4 9.17 (11:50) 5.56 (12:50) 0 0 0 0 0
11-08-2019 28 (18:10) 14.8 (00:00) 21.4 10.28 (12:40) 5.83 (15:10) 0 0 0 0 0
10-08-2019 30.9 (17:30) 15.2 (00:00) 23 10 (22:00) 5.83 (22:50) 0 0 0 0 0
09-08-2019 25.3 (00:00) 19.9 (00:00) 22.6 8.33 (09:40) 4.72 (14:40) 4 0 0 4 0
08-08-2019 33.2 (17:00) 18.1 (00:00) 25.7 11.67 (18:50) 6.11 (18:50) 0 0 0 0 0
07-08-2019 29 (18:30) 19.8 (00:00) 24.4 5.83 (17:50) 3.89 (17:50) 1 0 0.4 0.6 0
06-08-2019 34.7 (17:10) 18.6 (00:00) 26.7 9.44 (18:30) 5.56 (19:20) 0 0 0 0 0
05-08-2019 35.9 (18:20) 14.8 (00:00) 25.4 8.06 (17:30) 4.72 (17:30) 0 0 0 0 0
04-08-2019 36 (17:50) 19.9 (00:00) 27.9 10 (18:10) 5.83 (19:20) 0 0 0 0 0
03-08-2019 36.3 (18:40) 18.4 (00:00) 27.3 9.72 (16:30) 4.72 (11:50) 0 0 0 0 0
02-08-2019 35.9 (18:20) 15.3 (00:00) 25.6 10.83 (16:00) 4.44 (23:10) 0 0 0 0 0
01-08-2019 35.4 (17:10) 20.6 (00:00) 28 10.83 (17:30) 6.11 (19:50) 0 0 0 0 0
31-07-2019 35.6 (18:10) 17.8 (00:00) 26.7 9.17 (16:20) 5 (20:00) 0 0 0 0 0
30-07-2019 31.8 (19:00) 13.9 (00:00) 22.8 10.83 (15:50) 4.72 (10:50) 0 0 0 0 0
29-07-2019 31.3 (18:00) 16.4 (00:00) 23.8 10.83 (19:20) 6.39 (20:40) 0 0 0 0 0
28-07-2019 32.9 (18:20) 17.4 (00:00) 25.2 8.89 (22:50) 5.56 (22:40) 0 0 0 0 0
27-07-2019 27.6 (19:20) 15.7 (00:00) 21.7 10.56 (17:50) 5.83 (19:30) 0.4 0 0 0.4 0
26-07-2019 28.9 (16:50) 16 (00:00) 22.4 14.17 (15:00) 6.11 (15:10) 0 0 0 0 0
25-07-2019 34.2 (17:30) 20.2 (00:00) 27.2 11.39 (19:10) 6.67 (21:50) 0 0 0 0 0
24-07-2019 37.9 (17:40) 19.7 (00:00) 28.8 9.17 (18:50) 5 (18:50) 0 0 0 0 0

Gráficas

Temp. máximas Temp. mínimas Temp. medias Precipitaciones Rachas de viento máximas Velocidades máximas media en intervalos de 10 minutos

Datos horarios

Fecha y hora oficial Temperatura (ºC) Velocidad del viento (km/h) Dirección del viento Racha (km/h) Dirección de racha Precipitación (mm) Presión (hPa) Tendencia (hPa) Humedad (%)
2019-08-22 23:00:00 29.2 9 Sudeste 14 Sudeste 0 -- -- 29
2019-08-22 22:00:00 30.7 10 Sur 15 Sudeste 0 -- -- 26
2019-08-22 21:00:00 33.3 8 Sudeste 12 Este 0 -- -- 25
2019-08-22 20:00:00 35.2 7 Sudeste 17 Este 0 -- -- 23
2019-08-22 19:00:00 35.7 11 Nordeste 23 Este 0 -- -- 23
2019-08-22 18:00:00 35.5 11 Este 26 Este 0 -- -- 23
2019-08-22 17:00:00 35.9 12 Este 27 Este 0 -- -- 22
2019-08-22 16:00:00 35.4 13 Este 33 Este 0 -- -- 22
2019-08-22 15:00:00 34.8 17 Este 30 Este 0 -- -- 27
2019-08-22 14:00:00 33.7 11 Este 25 Este 0 -- -- 32
2019-08-22 13:00:00 32.7 12 Nordeste 30 Nordeste 0 -- -- 36
2019-08-22 12:00:00 31.1 11 Este 26 Este 0 -- -- 39
2019-08-22 11:00:00 29.2 13 Este 28 Este 0 -- -- 43
2019-08-22 10:00:00 26.1 12 Este 26 Este 0 -- -- 54
2019-08-22 09:00:00 23.6 6 Este 21 Este 0 -- -- 62
2019-08-22 08:00:00 22 5 Este 14 Este 0 -- -- 66
2019-08-22 07:00:00 22.5 10 Este 18 Este 0 -- -- 63
2019-08-22 06:00:00 22.9 11 Este 17 Este 0 -- -- 57
2019-08-22 05:00:00 23.8 9 Este 18 Este 0 -- -- 51
2019-08-22 04:00:00 25.1 9 Este 23 Este 0 -- -- 42
2019-08-22 03:00:00 24.5 9 Sudeste 13 Sudeste 0 -- -- 40
2019-08-22 02:00:00 25.2 5 Este 14 Este 0 -- -- 39
2019-08-22 01:00:00 28.3 10 Sudeste 14 Sudeste 0 -- -- 34
2019-08-22 00:00:00 28.5 9 Sudeste 15 Sudeste 0 -- -- 29
2019-08-21 23:00:00 28.5 8 Sudeste 11 Este 0 -- -- 30
2019-08-21 22:00:00 28.9 6 Sudeste 9 Sudeste 0 -- -- 30
2019-08-21 21:00:00 32.2 4 Nordeste 14 Nordeste 0 -- -- 26
2019-08-21 20:00:00 34 6 Norte 18 Oeste 0 -- -- 25
2019-08-21 19:00:00 34.9 10 Oeste 17 Oeste 0 -- -- 20
2019-08-21 18:00:00 35 5 Este 18 Noroeste 0 -- -- 21
2019-08-21 17:00:00 34.6 6 Nordeste 16 Noroeste 0 -- -- 24
2019-08-21 16:00:00 32.8 4 Noroeste 11 Sur 0 -- -- 28
2019-08-21 15:00:00 32 5 Nordeste 21 Norte 0 -- -- 32
2019-08-21 14:00:00 32.3 8 Nordeste 22 Este 0 -- -- 34
2019-08-21 13:00:00 30.8 10 Este 23 Este 0 -- -- 38
2019-08-21 12:00:00 28.8 10 Nordeste 23 Este 0 -- -- 44
2019-08-21 11:00:00 27.2 11 Nordeste 22 Este 0 -- -- 50
2019-08-21 10:00:00 25 7 Nordeste 21 Este 0 -- -- 56
2019-08-21 09:00:00 22.7 7 Este 16 Este 0 -- -- 62
2019-08-21 08:00:00 21.6 8 Este 18 Este 0 -- -- 64
2019-08-21 07:00:00 22.6 12 Este 22 Este 0 -- -- 60
2019-08-21 06:00:00 20.9 4 Este 9 Este 0 -- -- 53
2019-08-21 05:00:00 21.6 3 Este 12 Oeste 0 -- -- 45
2019-08-21 04:00:00 21.7 4 Este 7 Este 0 -- -- 44
2019-08-21 03:00:00 21.6 2 Sur 8 Este 0 -- -- 40
2019-08-21 02:00:00 24.2 6 Este 12 Este 0 -- -- 35
2019-08-21 01:00:00 22.8 4 Sudeste 11 Nordeste 0 -- -- 34
2019-08-21 00:00:00 24.1 5 Sur 9 Sur 0 -- -- 27
2019-08-20 23:00:00 24.8 5 Sur 7 Sur 0 -- -- 27
2019-08-20 22:00:00 26.1 3 Sudoeste 9 Sur 0 -- -- 27
2019-08-20 21:00:00 31.8 3 Noroeste 13 Noroeste 0 -- -- 23
2019-08-20 20:00:00 33.1 9 Este 15 Este 0 -- -- 21
2019-08-20 19:00:00 33.6 10 Este 17 Este 0 -- -- 22
2019-08-20 18:00:00 34.1 8 Norte 17 Este 0 -- -- 22
2019-08-20 17:00:00 33.2 9 Este 18 Este 0 -- -- 23
2019-08-20 16:00:00 32.8 7 Sudeste 23 Nordeste 0 -- -- 23
2019-08-20 15:00:00 31.5 11 Nordeste 21 Norte 0 -- -- 25
2019-08-20 14:00:00 29.8 9 Nordeste 21 Nordeste 0 -- -- 30
2019-08-20 13:00:00 28.1 11 Nordeste 21 Norte 0 -- -- 38
2019-08-20 12:00:00 26.2 10 Norte 26 Noroeste 0 -- -- 43
2019-08-20 11:00:00 22.9 7 Norte 16 Noroeste 0 -- -- 50
2019-08-20 10:00:00 20.3 10 Oeste 16 Oeste 0 -- -- 58
2019-08-20 09:00:00 18.4 10 Oeste 17 Oeste 0 -- -- 63
2019-08-20 08:00:00 17.1 12 Sudoeste 17 Sudoeste 0 -- -- 67
2019-08-20 07:00:00 17.1 12 Sudoeste 18 Sudoeste 0 -- -- 67
2019-08-20 06:00:00 17.7 13 Oeste 18 Oeste 0 -- -- 64
2019-08-20 05:00:00 18.1 12 Sudoeste 17 Sudoeste 0 -- -- 62
2019-08-20 04:00:00 18.4 11 Oeste 19 Oeste 0 -- -- 60
2019-08-20 03:00:00 19.2 11 Oeste 19 Oeste 0 -- -- 56
2019-08-20 02:00:00 19.8 10 Oeste 17 Noroeste 0 -- -- 54
2019-08-20 01:00:00 20.5 12 Oeste 19 Oeste 0 -- -- 53
2019-08-20 00:00:00 21.8 13 Oeste 22 Oeste 0 -- -- 49
2019-08-19 23:00:00 23.4 8 Oeste 22 Oeste 0 -- -- 42
2019-08-19 22:00:00 24.6 12 Oeste 25 Oeste 0 -- -- 34
2019-08-19 21:00:00 26 14 Oeste 32 Oeste 0 -- -- 34
2019-08-19 20:00:00 28.8 17 Oeste 30 Noroeste 0 -- -- 23
2019-08-19 19:00:00 31.1 19 Noroeste 32 Noroeste 0 -- -- 20
2019-08-19 18:00:00 31.5 12 Noroeste 28 Oeste 0 -- -- 20
2019-08-19 17:00:00 32.6 17 Oeste 30 Sudoeste 0 -- -- 25
2019-08-19 16:00:00 32.2 9 Oeste 26 Oeste 0 -- -- 28
2019-08-19 15:00:00 31.8 9 Sudoeste 19 Oeste 0 -- -- 27
2019-08-19 14:00:00 29 11 Sudoeste 24 Oeste 0 -- -- 36
2019-08-19 13:00:00 27.9 6 Norte 20 Oeste 0 -- -- 42
2019-08-19 12:00:00 26 5 Oeste 14 Oeste 0 -- -- 49
2019-08-19 11:00:00 22.2 10 Oeste 16 Oeste 0 -- -- 57
2019-08-19 10:00:00 18.7 7 Oeste 14 Oeste 0 -- -- 67
2019-08-19 09:00:00 18 9 Oeste 17 Sudoeste 0 -- -- 68
2019-08-19 08:00:00 16 9 Sudoeste 17 Sudoeste 0 -- -- 74
2019-08-19 07:00:00 16 10 Sudoeste 16 Oeste 0 -- -- 74
2019-08-19 06:00:00 16.6 9 Sudoeste 16 Sudoeste 0 -- -- 74
2019-08-19 05:00:00 16.9 7 Sudoeste 15 Oeste 0 -- -- 74
2019-08-19 04:00:00 17.9 8 Sudoeste 19 Sudoeste 0 -- -- 73
2019-08-19 03:00:00 18.4 10 Sudoeste 20 Oeste 0 -- -- 73
2019-08-19 02:00:00 19.5 13 Oeste 21 Sudoeste 0 -- -- 73
2019-08-19 01:00:00 20.6 12 Oeste 24 Oeste 0 -- -- 71
2019-08-19 00:00:00 22 17 Oeste 28 Oeste 0 -- -- 69
2019-08-18 23:00:00 24.2 15 Oeste 26 Oeste 0 -- -- 63
2019-08-18 22:00:00 25.8 17 Oeste 30 Oeste 0 -- -- 58
2019-08-18 21:00:00 28.1 20 Oeste 35 Oeste 0 -- -- 50
2019-08-18 20:00:00 30.8 21 Oeste 36 Oeste 0 -- -- 40
2019-08-18 19:00:00 32.6 21 Oeste 37 Oeste 0 -- -- 32
2019-08-18 18:00:00 33.2 13 Oeste 33 Noroeste 0 -- -- 35
2019-08-18 17:00:00 33 18 Oeste 31 Oeste 0 -- -- 33
2019-08-18 16:00:00 32.4 18 Oeste 30 Noroeste 0 -- -- 30
2019-08-18 15:00:00 30.6 17 Oeste 25 Oeste 0 -- -- 32
2019-08-18 14:00:00 29.6 14 Noroeste 27 Oeste 0 -- -- 38
2019-08-18 13:00:00 28.7 17 Oeste 28 Oeste 0 -- -- 37
2019-08-18 12:00:00 26.2 7 Oeste 21 Oeste 0 -- -- 47
2019-08-18 11:00:00 24.1 9 Oeste 21 Noroeste 0 -- -- 54
2019-08-18 10:00:00 22.1 10 Noroeste 18 Oeste 0 -- -- 58
2019-08-18 09:00:00 20.2 10 Oeste 16 Sudoeste 0 -- -- 64
2019-08-18 08:00:00 18.5 8 Sudoeste 19 Oeste 0 -- -- 71
2019-08-18 07:00:00 18.8 12 Oeste 23 Oeste 0 -- -- 68
2019-08-18 06:00:00 18.7 6 Oeste 20 Sudoeste 0 -- -- 62
2019-08-18 05:00:00 21.3 12 Sudoeste 19 Sudoeste 0 -- -- 54
2019-08-18 04:00:00 21.5 8 Sudoeste 17 Sudoeste 0 -- -- 54
2019-08-18 03:00:00 22.5 10 Sudoeste 21 Sudoeste 0 -- -- 54
2019-08-18 02:00:00 23.1 10 Sudoeste 22 Sudoeste 0 -- -- 55
2019-08-18 01:00:00 24.2 14 Sudoeste 20 Sudoeste 0 -- -- 52
2019-08-18 00:00:00 26.1 10 Oeste 26 Oeste 0 -- -- 45
2019-08-17 23:00:00 28.7 13 Oeste 25 Oeste 0 -- -- 42
2019-08-17 22:00:00 31.8 13 Oeste 22 Oeste 0 -- -- 26
2019-08-17 21:00:00 34.8 12 Sudoeste 24 Sudoeste 0 -- -- 19
2019-08-17 20:00:00 36.6 16 Sudoeste 30 Oeste 0 -- -- 17
2019-08-17 19:00:00 37.7 10 Sur 35 Oeste 0 -- -- 16
2019-08-17 18:00:00 37.8 10 Sur 26 Oeste 0 -- -- 14
2019-08-17 17:00:00 37.2 10 Sudoeste 27 Sudoeste 0 -- -- 14
2019-08-17 16:00:00 36.4 10 Sudoeste 26 Oeste 0 -- -- 15
2019-08-17 15:00:00 35.3 10 Sudoeste 23 Sudoeste 0 -- -- 19
2019-08-17 14:00:00 34 9 Sur 22 Sur 0 -- -- 24
2019-08-17 13:00:00 32.3 10 Sur 23 Sur 0 -- -- 27
2019-08-17 12:00:00 30.2 9 Sudoeste 17 Sur 0 -- -- 33
2019-08-17 11:00:00 27.5 5 Norte 10 Noroeste 0 -- -- 37
2019-08-17 10:00:00 24.7 4 Norte 10 Oeste 0 -- -- 42
2019-08-17 09:00:00 22.4 5 Oeste 10 Oeste 0 -- -- 47
2019-08-17 08:00:00 20.7 8 Sudoeste 17 Sudoeste 0 -- -- 51
2019-08-17 07:00:00 21 8 Sudoeste 19 Oeste 0 -- -- 50
2019-08-17 06:00:00 21.9 11 Sudoeste 19 Sudoeste 0 -- -- 47
2019-08-17 05:00:00 21.7 6 Sudoeste 15 Sudoeste 0 -- -- 48
2019-08-17 04:00:00 22.3 10 Sudoeste 14 Sudoeste 0 -- -- 46
2019-08-17 03:00:00 23.4 9 Oeste 15 Oeste 0 -- -- 45
2019-08-17 02:00:00 25.2 9 Sudoeste 21 Sudoeste 0 -- -- 39
2019-08-17 01:00:00 26.3 15 Sudoeste 24 Oeste 0 -- -- 38
2019-08-17 00:00:00 27.1 12 Sudoeste 19 Oeste 0 -- -- 37
2019-08-16 23:00:00 28.8 12 Sudoeste 21 Sudoeste 0 -- -- 32
2019-08-16 22:00:00 30.9 14 Oeste 28 Oeste 0 -- -- 32
2019-08-16 21:00:00 33.8 18 Oeste 30 Oeste 0 -- -- 29
2019-08-16 20:00:00 37 14 Oeste 26 Noroeste 0 -- -- 22
2019-08-16 19:00:00 38 14 Noroeste 31 Oeste 0 -- -- 20
2019-08-16 18:00:00 38.4 13 Noroeste 28 Oeste 0 -- -- 20
2019-08-16 17:00:00 38.3 13 Oeste 30 Oeste 0 -- -- 22
2019-08-16 16:00:00 37.3 9 Oeste 26 Oeste 0 -- -- 25
2019-08-16 15:00:00 35.9 11 Oeste 21 Sudoeste 0 -- -- 28
2019-08-16 14:00:00 34.8 10 Noroeste 21 Oeste 0 -- -- 30
2019-08-16 13:00:00 33.3 8 Oeste 17 Noroeste 0 -- -- 33
2019-08-16 12:00:00 31.2 7 Oeste 18 Oeste 0 -- -- 37
2019-08-16 11:00:00 28.6 5 Noroeste 14 Noroeste 0 -- -- 43
2019-08-16 10:00:00 25.6 5 Oeste 16 Oeste 0 -- -- 53
2019-08-16 09:00:00 23.5 9 Oeste 15 Oeste 0 -- -- 58
2019-08-16 08:00:00 21.9 8 Sudoeste 15 Sudoeste 0 -- -- 62
2019-08-16 07:00:00 22.3 8 Sudoeste 15 Sudoeste 0 -- -- 60
2019-08-16 06:00:00 23.1 8 Sudoeste 15 Sudoeste 0 -- -- 57
2019-08-16 05:00:00 23.6 8 Sudoeste 15 Oeste 0 -- -- 55
2019-08-16 04:00:00 24.5 12 Sudoeste 17 Oeste 0 -- -- 52
2019-08-16 03:00:00 25.4 9 Sudoeste 19 Sudoeste 0 -- -- 49
2019-08-16 02:00:00 26.2 9 Sudoeste 14 Oeste 0 -- -- 46
2019-08-16 01:00:00 27.4 10 Sudoeste 19 Sudoeste 0 -- -- 42
2019-08-16 00:00:00 28.5 13 Oeste 22 Oeste 0 -- -- 38
2019-08-15 23:00:00 30.5 13 Sudoeste 26 Oeste 0 -- -- 33
2019-08-15 22:00:00 32.5 14 Oeste 28 Oeste 0 -- -- 31
2019-08-15 21:00:00 36 9 Oeste 19 Noroeste 0 -- -- 21
2019-08-15 20:00:00 37.6 10 Noroeste 23 Noroeste 0 -- -- 20
2019-08-15 19:00:00 37.6 9 Norte 26 Oeste 0 -- -- 20
2019-08-15 18:00:00 37.4 9 Norte 25 Noroeste 0 -- -- 20
2019-08-15 17:00:00 37.3 13 Oeste 26 Oeste 0 -- -- 21
2019-08-15 16:00:00 36.8 9 Oeste 24 Noroeste 0 -- -- 22
2019-08-15 15:00:00 36 13 Noroeste 26 Noroeste 0 -- -- 24
2019-08-15 14:00:00 35 7 Noroeste 19 Noroeste 0 -- -- 27
2019-08-15 13:00:00 33.7 9 Noroeste 21 Noroeste 0 -- -- 31
2019-08-15 12:00:00 32 9 Noroeste 16 Noroeste 0 -- -- 35
2019-08-15 11:00:00 29.1 8 Noroeste 16 Noroeste 0 -- -- 42
2019-08-15 10:00:00 25.9 5 Oeste 14 Oeste 0 -- -- 53
2019-08-15 09:00:00 23.5 10 Oeste 16 Oeste 0 -- -- 63
2019-08-15 08:00:00 22.4 8 Oeste 18 Oeste 0 -- -- 66
2019-08-15 07:00:00 22.8 5 Oeste 14 Sudoeste 0 -- -- 64
2019-08-15 06:00:00 23.2 6 Oeste 11 Sudoeste 0 -- -- 62
2019-08-15 05:00:00 23.7 8 Oeste 17 Sudoeste 0 -- -- 60
2019-08-15 04:00:00 24.2 10 Sudoeste 15 Oeste 0 -- -- 58
2019-08-15 03:00:00 24.8 7 Sudoeste 17 Sudoeste 0 -- -- 56
2019-08-15 02:00:00 25.3 10 Sudoeste 17 Oeste 0 -- -- 54
2019-08-15 01:00:00 26.3 11 Sudoeste 22 Sudoeste 0 -- -- 51
2019-08-15 00:00:00 27.5 12 Sudoeste 19 Oeste 0 -- -- 46
2019-08-14 23:00:00 28.8 11 Sudoeste 23 Oeste 0 -- -- 39
2019-08-14 22:00:00 29.6 12 Oeste 19 Oeste 0 -- -- 31
2019-08-14 21:00:00 33.1 2 Sudoeste 15 Noroeste 0 -- -- 21
2019-08-14 20:00:00 35.4 8 Oeste 16 Noroeste 0 -- -- 18
2019-08-14 19:00:00 35.3 5 Nordeste 28 Norte 0 -- -- 18
2019-08-14 18:00:00 35.5 12 Noroeste 24 Norte 0 -- -- 18
2019-08-14 17:00:00 35.5 7 Norte 22 Noroeste 0 -- -- 18
2019-08-14 16:00:00 34.7 9 Noroeste 23 Oeste 0 -- -- 19
2019-08-14 15:00:00 34.2 9 Oeste 22 Noroeste 0 -- -- 19
2019-08-14 14:00:00 32.8 9 Noroeste 22 Norte 0 -- -- 20
2019-08-14 13:00:00 31.8 6 Norte 14 Noroeste 0 -- -- 21
2019-08-14 12:00:00 29.8 5 Noroeste 14 Norte 0 -- -- 24
2019-08-14 11:00:00 26.8 4 Nordeste 9 Norte 0 -- -- 28
2019-08-14 10:00:00 23.3 0 Calma 11 Oeste 0 -- -- 40
2019-08-14 09:00:00 20.8 5 Oeste 9 Oeste 0 -- -- 47
2019-08-14 08:00:00 18.2 3 Sudoeste 9 Sudoeste 0 -- -- 54
2019-08-14 07:00:00 18.5 3 Sudoeste 10 Sudoeste 0 -- -- 52
2019-08-14 06:00:00 19.8 5 Sudoeste 14 Oeste 0 -- -- 50
2019-08-14 05:00:00 21.1 7 Oeste 17 Oeste 0 -- -- 46
2019-08-14 04:00:00 21.9 11 Sudoeste 17 Sudoeste 0 -- -- 44
2019-08-14 03:00:00 22.6 10 Sudoeste 18 Sudoeste 0 -- -- 39
2019-08-14 02:00:00 22.5 9 Oeste 14 Oeste 0 -- -- 30
2019-08-14 01:00:00 24.2 9 Oeste 21 Oeste 0 -- -- 26
2019-08-14 00:00:00 22.5 5 Sudeste 9 Sudeste 0 -- -- 28
2019-08-13 23:00:00 23.4 4 Oeste 6 Oeste 0 -- -- 26
2019-08-13 22:00:00 24.7 5 Sudoeste 7 Oeste 0 -- -- 25
2019-08-13 21:00:00 30.4 2 Nordeste 13 Noroeste 0 -- -- 20
2019-08-13 20:00:00 32.4 8 Noroeste 21 Noroeste 0 -- -- 16
2019-08-13 19:00:00 32.9 8 Noroeste 26 Noroeste 0 -- -- 17
2019-08-13 18:00:00 33 10 Noroeste 24 Noroeste 0 -- -- 19
2019-08-13 17:00:00 33.5 9 Noroeste 23 Este 0 -- -- 18
2019-08-13 16:00:00 32.5 11 Noroeste 24 Norte 0 -- -- 20
2019-08-13 15:00:00 31.8 6 Nordeste 20 Este 0 -- -- 22
2019-08-13 14:00:00 30.7 8 Norte 18 Norte 0 -- -- 22
2019-08-13 13:00:00 29.3 5 Norte 19 Norte 0 -- -- 26
2019-08-13 12:00:00 27.1 6 Norte 15 Nordeste 0 -- -- 30
2019-08-13 11:00:00 24.7 3 Sudoeste 9 Norte 0 -- -- 33
2019-08-13 10:00:00 20.7 4 Oeste 9 Oeste 0 -- -- 38
2019-08-13 09:00:00 17.7 6 Oeste 10 Oeste 0 -- -- 44
2019-08-13 08:00:00 15.7 3 Oeste 15 Oeste 0 -- -- 50
2019-08-13 07:00:00 17.1 9 Sudoeste 21 Oeste 0 -- -- 47
2019-08-13 06:00:00 17.7 13 Sudoeste 21 Sudoeste 0 -- -- 44
2019-08-13 05:00:00 18.4 13 Sudoeste 22 Oeste 0 -- -- 38
2019-08-13 04:00:00 19 8 Sudoeste 14 Oeste 0 -- -- 35
2019-08-13 03:00:00 18.9 6 Oeste 10 Oeste 0 -- -- 34
2019-08-13 02:00:00 19.6 6 Oeste 14 Oeste 0 -- -- 33
2019-08-13 01:00:00 22 4 Oeste 12 Noroeste 0 -- -- 30
2019-08-13 00:00:00 22.5 3 Sur 10 Sudeste 0 -- -- 28
2019-08-12 23:00:00 23 3 Sudeste 11 Nordeste 0 -- -- 28
2019-08-12 22:00:00 25.2 4 Norte 15 Nordeste 0 -- -- 25
2019-08-12 21:00:00 27.5 7 Norte 19 Norte 0 -- -- 23
2019-08-12 20:00:00 28.9 9 Norte 26 Nordeste 0 -- -- 20
2019-08-12 19:00:00 29.7 11 Noroeste 24 Norte 0 -- -- 20
2019-08-12 18:00:00 29.6 11 Noroeste 22 Noroeste 0 -- -- 20
2019-08-12 17:00:00 29.1 9 Nordeste 28 Nordeste 0 -- -- 22
2019-08-12 16:00:00 28.1 12 Nordeste 28 Nordeste 0 -- -- 23
2019-08-12 15:00:00 27.8 13 Norte 29 Nordeste 0 -- -- 24
2019-08-12 14:00:00 26.5 15 Nordeste 33 Nordeste 0 -- -- 26
2019-08-12 13:00:00 25.1 18 Nordeste 33 Norte 0 -- -- 28
2019-08-12 12:00:00 23.7 15 Norte 33 Norte 0 -- -- 36
2019-08-12 11:00:00 21.8 15 Norte 26 Noroeste 0 -- -- 40
2019-08-12 10:00:00 18.7 13 Noroeste 20 Noroeste 0 -- -- 50
2019-08-12 09:00:00 15.7 5 Oeste 14 Oeste 0 -- -- 62
2019-08-12 08:00:00 13.1 3 Sur 9 Oeste 0 -- -- 71
2019-08-12 07:00:00 13.7 3 Oeste 14 Oeste 0 -- -- 68
2019-08-12 06:00:00 13.8 4 Oeste 9 Oeste 0 -- -- 68
2019-08-12 05:00:00 15 6 Oeste 14 Oeste 0 -- -- 64
2019-08-12 04:00:00 15.8 10 Oeste 21 Oeste 0 -- -- 61
2019-08-12 03:00:00 16.5 10 Oeste 21 Oeste 0 -- -- 60
2019-08-12 02:00:00 17.2 9 Sudoeste 19 Sudoeste 0 -- -- 58
2019-08-12 01:00:00 17.8 10 Oeste 18 Oeste 0 -- -- 57
2019-08-12 00:00:00 19.3 14 Oeste 30 Noroeste 0 -- -- 52
2019-08-11 23:00:00 20.8 15 Noroeste 33 Oeste 0 -- -- 46
2019-08-11 22:00:00 22.4 18 Noroeste 32 Noroeste 0 -- -- 39
2019-08-11 21:00:00 25 14 Noroeste 32 Noroeste 0 -- -- 31
2019-08-11 20:00:00 26.6 13 Noroeste 37 Oeste 0 -- -- 29
2019-08-11 19:00:00 27.5 14 Noroeste 32 Oeste 0 -- -- 28
2019-08-11 18:00:00 27.9 12 Noroeste 33 Oeste 0 -- -- 24
2019-08-11 17:00:00 27.7 13 Noroeste 29 Noroeste 0 -- -- 25
2019-08-11 16:00:00 26.2 12 Noroeste 32 Noroeste 0 -- -- 30
2019-08-11 15:00:00 25.6 16 Noroeste 34 Noroeste 0 -- -- 31
2019-08-11 14:00:00 24.9 14 Noroeste 31 Oeste 0 -- -- 35
2019-08-11 13:00:00 23.9 19 Noroeste 37 Oeste 0 -- -- 36
2019-08-11 12:00:00 22.1 17 Noroeste 31 Noroeste 0 -- -- 41
2019-08-11 11:00:00 19.9 18 Noroeste 29 Oeste 0 -- -- 48
2019-08-11 10:00:00 18.4 17 Oeste 26 Oeste 0 -- -- 57
2019-08-11 09:00:00 16.4 15 Oeste 27 Oeste 0 -- -- 65
2019-08-11 08:00:00 14.8 14 Sudoeste 22 Sudoeste 0 -- -- 72
2019-08-11 07:00:00 15.2 13 Oeste 24 Oeste 0 -- -- 72
2019-08-11 06:00:00 15.9 12 Oeste 25 Oeste 0 -- -- 70
2019-08-11 05:00:00 17.6 9 Oeste 23 Sudoeste 0 -- -- 62
2019-08-11 04:00:00 18.8 10 Sudoeste 20 Sudoeste 0 -- -- 58
2019-08-11 03:00:00 18.9 6 Oeste 23 Oeste 0 -- -- 57
2019-08-11 02:00:00 19.4 16 Oeste 28 Oeste 0 -- -- 57
2019-08-11 01:00:00 20 17 Oeste 32 Oeste 0 -- -- 56
2019-08-11 00:00:00 20.7 15 Oeste 30 Oeste 0 -- -- 56
2019-08-10 23:00:00 22.1 19 Oeste 32 Oeste 0 -- -- 53
2019-08-10 22:00:00 25 19 Oeste 36 Oeste 0 -- -- 41
2019-08-10 21:00:00 27.6 16 Oeste 26 Oeste 0 -- -- 35
2019-08-10 20:00:00 29 9 Noroeste 21 Noroeste 0 -- -- 30
2019-08-10 19:00:00 30.4 10 Oeste 21 Noroeste 0 -- -- 27
2019-08-10 18:00:00 30.3 8 Noroeste 23 Noroeste 0 -- -- 28
2019-08-10 17:00:00 30.4 5 Noroeste 25 Noroeste 0 -- -- 26
2019-08-10 16:00:00 29.3 11 Noroeste 19 Oeste 0 -- -- 30
2019-08-10 15:00:00 27.9 9 Oeste 21 Sudoeste 0 -- -- 29
2019-08-10 14:00:00 25.9 6 Noroeste 15 Norte 0 -- -- 41
2019-08-10 13:00:00 24 6 Norte 14 Norte 0 -- -- 50
2019-08-10 12:00:00 22.3 5 Noroeste 10 Noroeste 0 -- -- 59
2019-08-10 11:00:00 20.4 5 Norte 10 Norte 0 -- -- 67
2019-08-10 10:00:00 18.4 3 Oeste 9 Sudoeste 0 -- -- 75
2019-08-10 09:00:00 16.8 6 Oeste 10 Oeste 0 -- -- 80
2019-08-10 08:00:00 15.2 4 Sudoeste 14 Oeste 0 -- -- 85
2019-08-10 07:00:00 16.1 9 Sudoeste 14 Oeste 0 -- -- 82
2019-08-10 06:00:00 16.3 9 Sudoeste 15 Oeste 0 -- -- 82
2019-08-10 05:00:00 16.9 10 Sudoeste 15 Oeste 0 -- -- 80
2019-08-10 04:00:00 17.4 11 Sudoeste 17 Oeste 0 -- -- 78
2019-08-10 03:00:00 18.4 12 Sudoeste 22 Sudoeste 0 -- -- 72
2019-08-10 02:00:00 19.3 13 Sudoeste 19 Sudoeste 0 -- -- 69
2019-08-10 01:00:00 20.4 13 Sudoeste 18 Oeste 0 -- -- 66
2019-08-10 00:00:00 21.3 11 Oeste 16 Oeste 0 -- -- 66
2019-08-09 23:00:00 22.1 11 Sudoeste 17 Sudoeste 0 -- -- 63
2019-08-09 22:00:00 21 6 Sudoeste 8 Sudoeste 0 -- -- 67
2019-08-09 21:00:00 24.6 0 Calma 8 Noroeste 0 -- -- 57
2019-08-09 20:00:00 25.3 5 Sudoeste 14 Sudoeste 0 -- -- 54
2019-08-09 19:00:00 23.7 7 Oeste 13 Oeste 0 -- -- 63
2019-08-09 18:00:00 22.3 8 Oeste 14 Oeste 0 -- -- 69
2019-08-09 17:00:00 20.8 8 Noroeste 26 Oeste 0 -- -- 74
2019-08-09 16:00:00 20.7 14 Oeste 28 Oeste 0 -- -- 77
2019-08-09 15:00:00 20.2 11 Sudoeste 28 Noroeste 1 -- -- 87
2019-08-09 14:00:00 21.6 9 Noroeste 13 Noroeste 2.8 -- -- 90
2019-08-09 13:00:00 21.3 6 Noroeste 22 Sudoeste 0.2 -- -- 90
2019-08-09 12:00:00 23.6 13 Sudoeste 29 Sudoeste 0 -- -- 81
2019-08-09 11:00:00 22.5 12 Sudoeste 27 Sur 0 -- -- 84
2019-08-09 10:00:00 22.6 16 Sur 30 Sudoeste 0 -- -- 81
2019-08-09 09:00:00 22.4 6 Sudoeste 21 Sudoeste 0 -- -- 81
2019-08-09 08:00:00 21.7 13 Sur 27 Sur 0 -- -- 83
2019-08-09 07:00:00 21.8 5 Sur 21 Sur 0 -- -- 84
2019-08-09 06:00:00 21.6 11 Sudoeste 16 Sudoeste 0 -- -- 82
2019-08-09 05:00:00 21.1 6 Sur 15 Sudoeste 0 -- -- 81
2019-08-09 04:00:00 21.2 9 Sudoeste 15 Sudoeste 0 -- -- 81
2019-08-09 03:00:00 21.9 9 Sudoeste 14 Sudoeste 0 -- -- 77
2019-08-09 02:00:00 22.6 11 Oeste 15 Oeste 0 -- -- 75
2019-08-09 01:00:00 24.1 7 Sudoeste 17 Oeste 0 -- -- 67
2019-08-09 00:00:00 25.3 8 Oeste 19 Sudoeste 0 -- -- 61
2019-08-08 23:00:00 26.7 14 Sudoeste 27 Sudoeste 0 -- -- 54
2019-08-08 22:00:00 28.2 15 Oeste 27 Oeste 0 -- -- 49
2019-08-08 21:00:00 30.3 19 Oeste 30 Oeste 0 -- -- 43
2019-08-08 20:00:00 31.6 22 Oeste 38 Oeste 0 -- -- 40
2019-08-08 19:00:00 32.4 21 Sudoeste 42 Oeste 0 -- -- 39
2019-08-08 18:00:00 32.7 17 Sudoeste 38 Sudoeste 0 -- -- 39
2019-08-08 17:00:00 33.2 12 Sur 36 Sudoeste 0 -- -- 39
2019-08-08 16:00:00 32.2 15 Sudoeste 35 Oeste 0 -- -- 42
2019-08-08 15:00:00 31.3 13 Sudoeste 35 Sur 0 -- -- 45
2019-08-08 14:00:00 30.4 14 Sur 31 Sur 0 -- -- 49
2019-08-08 13:00:00 29.2 11 Sudoeste 26 Sudoeste 0 -- -- 49
2019-08-08 12:00:00 27.9 10 Sur 23 Sudoeste 0 -- -- 46
2019-08-08 11:00:00 26.4 5 Nordeste 13 Este 0 -- -- 54
2019-08-08 10:00:00 24.5 4 Noroeste 9 Oeste 0 -- -- 61
2019-08-08 09:00:00 21.5 0 Calma 4 Noroeste 0 -- -- 65
2019-08-08 08:00:00 18.3 3 Sur 5 Sur 0 -- -- 78
2019-08-08 07:00:00 18.2 3 Sur 5 Sur 0 -- -- 76
2019-08-08 06:00:00 18.4 2 Sudoeste 5 Sur 0 -- -- 73
2019-08-08 05:00:00 19 5 Sur 7 Sur 0 -- -- 71
2019-08-08 04:00:00 20 3 Sudoeste 9 Sudoeste 0 -- -- 67
2019-08-08 03:00:00 20.9 6 Sudoeste 8 Sudoeste 0 -- -- 65
2019-08-08 02:00:00 21.5 3 Oeste 13 Noroeste 0 -- -- 61
2019-08-08 01:00:00 23.5 9 Sur 15 Sur 0 -- -- 57
2019-08-08 00:00:00 22 6 Sur 9 Sur 0 -- -- 60
2019-08-07 23:00:00 22.4 4 Sur 7 Sur 0 -- -- 59
2019-08-07 22:00:00 24.9 3 Oeste 13 Noroeste 0 -- -- 55
2019-08-07 21:00:00 27.3 7 Noroeste 15 Norte 0 -- -- 50
2019-08-07 20:00:00 28.4 6 Oeste 15 Noroeste 0 -- -- 48
2019-08-07 19:00:00 28.6 8 Oeste 19 Oeste 0 -- -- 47
2019-08-07 18:00:00 27.8 11 Oeste 21 Oeste 0 -- -- 49
2019-08-07 17:00:00 27.3 7 Noroeste 19 Oeste 0 -- -- 49
2019-08-07 16:00:00 25.3 5 Sur 12 Sudoeste 0 -- -- 58
2019-08-07 15:00:00 23.6 8 Oeste 14 Sudoeste 0 -- -- 61
2019-08-07 14:00:00 22.6 6 Oeste 12 Noroeste 0 -- -- 67
2019-08-07 13:00:00 21.4 5 Noroeste 13 Oeste 0.6 -- -- 74
2019-08-07 12:00:00 20.8 6 Oeste 18 Sudoeste 0.4 -- -- 78
2019-08-07 11:00:00 21.4 11 Sudoeste 18 Sur 0 -- -- 70
2019-08-07 10:00:00 20.4 7 Sudoeste 11 Sur 0 -- -- 75
2019-08-07 09:00:00 20.3 12 Sudoeste 20 Sudoeste 0 -- -- 71
2019-08-07 08:00:00 20.1 8 Sudoeste 14 Oeste 0 -- -- 72
2019-08-07 07:00:00 20 10 Sudoeste 17 Sudoeste 0 -- -- 72
2019-08-07 06:00:00 20.3 11 Sudoeste 19 Sur 0 -- -- 70
2019-08-07 05:00:00 21.4 10 Sudoeste 15 Sudoeste 0 -- -- 63
2019-08-07 04:00:00 21.1 8 Sudoeste 15 Oeste 0 -- -- 66
2019-08-07 03:00:00 21.9 9 Oeste 14 Oeste 0 -- -- 62
2019-08-07 02:00:00 22.7 3 Oeste 14 Sudoeste 0 -- -- 57
2019-08-07 01:00:00 23.4 10 Sudoeste 14 Sudoeste 0 -- -- 58
2019-08-07 00:00:00 23.7 6 Sudoeste 13 Oeste 0 -- -- 57
2019-08-06 23:00:00 25.1 8 Oeste 25 Oeste 0 -- -- 52
2019-08-06 22:00:00 26.7 9 Oeste 23 Oeste 0 -- -- 46
2019-08-06 21:00:00 28.9 15 Oeste 30 Oeste 0 -- -- 40
2019-08-06 20:00:00 31.2 19 Oeste 30 Oeste 0 -- -- 36
2019-08-06 19:00:00 33.3 17 Oeste 34 Noroeste 0 -- -- 31
2019-08-06 18:00:00 34.6 17 Oeste 33 Sudoeste 0 -- -- 31
2019-08-06 17:00:00 34.3 14 Oeste 29 Oeste 0 -- -- 30
2019-08-06 16:00:00 34.3 13 Sur 28 Oeste 0 -- -- 30
2019-08-06 15:00:00 32.2 14 Sur 29 Sur 0 -- -- 35
2019-08-06 14:00:00 30.6 9 Sudoeste 24 Oeste 0 -- -- 39
2019-08-06 13:00:00 28.3 12 Sur 22 Sur 0 -- -- 44
2019-08-06 12:00:00 26.3 12 Sudoeste 22 Sudoeste 0 -- -- 50
2019-08-06 11:00:00 25 10 Sur 19 Sudoeste 0 -- -- 55
2019-08-06 10:00:00 23.3 9 Sur 14 Sudeste 0 -- -- 58
2019-08-06 09:00:00 20.5 2 Norte 5 Norte 0 -- -- 63
2019-08-06 08:00:00 18.8 3 Este 15 Sudoeste 0 -- -- 70
2019-08-06 07:00:00 18.8 9 Sudoeste 20 Oeste 0 -- -- 71
2019-08-06 06:00:00 19.1 11 Sudoeste 16 Sudoeste 0 -- -- 66
2019-08-06 05:00:00 21.2 11 Sudoeste 21 Sudoeste 0 -- -- 55
2019-08-06 04:00:00 22.1 9 Sudoeste 17 Sudoeste 0 -- -- 52
2019-08-06 03:00:00 22.4 10 Sudoeste 21 Sudoeste 0 -- -- 52
2019-08-06 02:00:00 23.1 9 Sudoeste 21 Oeste 0 -- -- 50
2019-08-06 01:00:00 24.1 15 Sudoeste 25 Sudoeste 0 -- -- 47
2019-08-06 00:00:00 25.8 15 Oeste 27 Oeste 0 -- -- 43
2019-08-05 23:00:00 28.1 14 Oeste 25 Oeste 0 -- -- 35
2019-08-05 22:00:00 30.4 14 Oeste 23 Oeste 0 -- -- 30
2019-08-05 21:00:00 33.5 12 Oeste 22 Oeste 0 -- -- 24
2019-08-05 20:00:00 35.2 9 Oeste 23 Oeste 0 -- -- 22
2019-08-05 19:00:00 35.7 12 Noroeste 27 Noroeste 0 -- -- 21
2019-08-05 18:00:00 35.3 9 Sudoeste 29 Sur 0 -- -- 22
2019-08-05 17:00:00 35.1 9 Sudeste 24 Sudoeste 0 -- -- 21
2019-08-05 16:00:00 34 9 Oeste 26 Sudoeste 0 -- -- 22
2019-08-05 15:00:00 33 13 Sur 26 Sudeste 0 -- -- 23
2019-08-05 14:00:00 31 9 Sudoeste 21 Sudoeste 0 -- -- 24
2019-08-05 13:00:00 29.5 9 Sur 23 Sudoeste 0 -- -- 32
2019-08-05 12:00:00 27.4 4 Norte 10 Norte 0 -- -- 42
2019-08-05 11:00:00 23.8 5 Noroeste 10 Noroeste 0 -- -- 52
2019-08-05 10:00:00 21.2 5 Noroeste 9 Oeste 0 -- -- 59
2019-08-05 09:00:00 18.5 3 Nordeste 6 Oeste 0 -- -- 68
2019-08-05 08:00:00 14.9 2 Oeste 4 Sudoeste 0 -- -- 79
2019-08-05 07:00:00 16.3 0 Calma 12 Oeste 0 -- -- 73
2019-08-05 06:00:00 17 6 Sudoeste 11 Sudoeste 0 -- -- 73
2019-08-05 05:00:00 16.2 2 Oeste 9 Oeste 0 -- -- 75
2019-08-05 04:00:00 16.8 5 Oeste 9 Sudoeste 0 -- -- 73
2019-08-05 03:00:00 19.2 3 Oeste 15 Sudoeste 0 -- -- 66
2019-08-05 02:00:00 20.5 8 Sudoeste 15 Sudoeste 0 -- -- 63
2019-08-05 01:00:00 21.4 8 Oeste 15 Oeste 0 -- -- 60
2019-08-05 00:00:00 23.3 8 Oeste 18 Oeste 0 -- -- 51
2019-08-04 23:00:00 25.5 8 Oeste 17 Oeste 0 -- -- 43
2019-08-04 22:00:00 27.5 9 Oeste 28 Oeste 0 -- -- 38
2019-08-04 21:00:00 30.5 19 Oeste 33 Oeste 0 -- -- 31
2019-08-04 20:00:00 33 20 Oeste 36 Oeste 0 -- -- 30
2019-08-04 19:00:00 34.9 19 Noroeste 36 Noroeste 0 -- -- 26
2019-08-04 18:00:00 36 14 Noroeste 32 Oeste 0 -- -- 26
2019-08-04 17:00:00 35.9 4 Noroeste 32 Oeste 0 -- -- 24
2019-08-04 16:00:00 34.6 13 Sudoeste 28 Sudoeste 0 -- -- 27
2019-08-04 15:00:00 33.9 14 Sur 27 Sudoeste 0 -- -- 31
2019-08-04 14:00:00 32.4 12 Sur 26 Sudoeste 0 -- -- 36
2019-08-04 13:00:00 30.3 9 Sudoeste 28 Sur 0 -- -- 39
2019-08-04 12:00:00 27.7 10 Sur 18 Sudoeste 0 -- -- 45
2019-08-04 11:00:00 25.2 10 Sudoeste 18 Sur 0 -- -- 52
2019-08-04 10:00:00 23.5 11 Sudoeste 20 Sudoeste 0 -- -- 57
2019-08-04 09:00:00 21.6 14 Sudoeste 21 Sudoeste 0 -- -- 63
2019-08-04 08:00:00 20.1 13 Sudoeste 19 Sudoeste 0 -- -- 68
2019-08-04 07:00:00 19.9 15 Sudoeste 21 Sudoeste 0 -- -- 69
2019-08-04 06:00:00 20.5 17 Sudoeste 20 Sudoeste 0 -- -- 65
2019-08-04 05:00:00 21.4 11 Sudoeste 18 Sudoeste 0 -- -- 62
2019-08-04 04:00:00 21.5 10 Sudoeste 16 Sudoeste 0 -- -- 62
2019-08-04 03:00:00 22.4 7 Sudoeste 18 Oeste 0 -- -- 58
2019-08-04 02:00:00 23.7 12 Oeste 18 Oeste 0 -- -- 53
2019-08-04 01:00:00 24.7 10 Sudoeste 23 Oeste 0 -- -- 52
2019-08-04 00:00:00 26 13 Oeste 25 Oeste 0 -- -- 50
2019-08-03 23:00:00 28.1 10 Oeste 25 Sudoeste 0 -- -- 42
2019-08-03 22:00:00 30.5 15 Oeste 24 Oeste 0 -- -- 36
2019-08-03 21:00:00 33.9 9 Sur 23 Sudoeste 0 -- -- 21
2019-08-03 20:00:00 35 11 Sudoeste 27 Sudoeste 0 -- -- 20
2019-08-03 19:00:00 35.9 8 Sur 25 Sur 0 -- -- 19
2019-08-03 18:00:00 35.9 6 Sudoeste 23 Sudoeste 0 -- -- 20
2019-08-03 17:00:00 35.1 14 Sudoeste 35 Oeste 0 -- -- 22
2019-08-03 16:00:00 33.9 7 Este 27 Oeste 0 -- -- 24
2019-08-03 15:00:00 34 8 Sur 23 Oeste 0 -- -- 24
2019-08-03 14:00:00 32.4 11 Sur 24 Sur 0 -- -- 27
2019-08-03 13:00:00 30.8 11 Sur 26 Oeste 0 -- -- 31
2019-08-03 12:00:00 28.1 14 Sudoeste 26 Sudoeste 0 -- -- 38
2019-08-03 11:00:00 26.7 7 Sur 17 Sur 0 -- -- 44
2019-08-03 10:00:00 24.3 9 Sudoeste 17 Sudoeste 0 -- -- 50
2019-08-03 09:00:00 20.4 3 Norte 5 Nordeste 0 -- -- 61
2019-08-03 08:00:00 18.5 3 Noroeste 4 Noroeste 0 -- -- 69
2019-08-03 07:00:00 21 10 Sudoeste 19 Sur 0 -- -- 60
2019-08-03 06:00:00 22.6 11 Sudoeste 14 Sudoeste 0 -- -- 56
2019-08-03 05:00:00 22.5 12 Sudoeste 16 Sudoeste 0 -- -- 56
2019-08-03 04:00:00 23.3 10 Sudoeste 16 Sudoeste 0 -- -- 54
2019-08-03 03:00:00 23.7 11 Sudoeste 18 Sudoeste 0 -- -- 53
2019-08-03 02:00:00 24.4 9 Sudoeste 21 Sudoeste 0 -- -- 53
2019-08-03 01:00:00 25.1 13 Sudoeste 22 Oeste 0 -- -- 52
2019-08-03 00:00:00 26.4 14 Oeste 23 Oeste 0 -- -- 48
2019-08-02 23:00:00 28.4 15 Oeste 24 Oeste 0 -- -- 43
2019-08-02 22:00:00 29 9 Sur 13 Sudoeste 0 -- -- 24
2019-08-02 21:00:00 34.2 5 Norte 13 Norte 0 -- -- 17
2019-08-02 20:00:00 35.4 5 Noroeste 15 Nordeste 0 -- -- 16
2019-08-02 19:00:00 35.5 9 Oeste 15 Noroeste 0 -- -- 17
2019-08-02 18:00:00 35.5 5 Noroeste 21 Norte 0 -- -- 16
2019-08-02 17:00:00 35.1 8 Sudoeste 23 Sudoeste 0 -- -- 18
2019-08-02 16:00:00 34.3 10 Oeste 39 Oeste 0 -- -- 21
2019-08-02 15:00:00 33.3 6 Sur 34 Sudoeste 0 -- -- 23
2019-08-02 14:00:00 31.5 10 Oeste 20 Sudoeste 0 -- -- 24
2019-08-02 13:00:00 29.3 10 Sudoeste 18 Sudoeste 0 -- -- 28
2019-08-02 12:00:00 26.6 9 Sudoeste 19 Oeste 0 -- -- 34
2019-08-02 11:00:00 24.1 11 Sudoeste 16 Sudoeste 0 -- -- 43
2019-08-02 10:00:00 21.2 5 Oeste 12 Sudoeste 0 -- -- 51
2019-08-02 09:00:00 17.6 2 Norte 13 Sudoeste 0 -- -- 62
2019-08-02 08:00:00 16 8 Sudoeste 18 Sudoeste 0 -- -- 67
2019-08-02 07:00:00 17.3 9 Sudoeste 14 Sudoeste 0 -- -- 62
2019-08-02 06:00:00 17.4 10 Sudoeste 14 Sudoeste 0 -- -- 63
2019-08-02 05:00:00 17.5 10 Sudoeste 17 Sudoeste 0 -- -- 64
2019-08-02 04:00:00 18 10 Sudoeste 16 Oeste 0 -- -- 62
2019-08-02 03:00:00 19 6 Oeste 14 Oeste 0 -- -- 56
2019-08-02 02:00:00 19.9 7 Sudoeste 18 Sudoeste 0 -- -- 51
2019-08-02 01:00:00 22.4 12 Sudoeste 18 Oeste 0 -- -- 45
2019-08-02 00:00:00 24 12 Sudoeste 19 Sudoeste 0 -- -- 39
2019-08-01 23:00:00 25.9 13 Sudoeste 23 Oeste 0 -- -- 32
2019-08-01 22:00:00 28 12 Sudoeste 29 Oeste 0 -- -- 28
2019-08-01 21:00:00 30.2 17 Oeste 34 Oeste 0 -- -- 25
2019-08-01 20:00:00 32.6 21 Oeste 34 Oeste 0 -- -- 23
2019-08-01 19:00:00 34.2 20 Oeste 37 Oeste 0 -- -- 21
2019-08-01 18:00:00 35.2 16 Oeste 39 Sur 0 -- -- 19
2019-08-01 17:00:00 35 13 Oeste 25 Oeste 0 -- -- 22
2019-08-01 16:00:00 34.4 15 Oeste 33 Sudoeste 0 -- -- 22
2019-08-01 15:00:00 33.2 13 Oeste 30 Oeste 0 -- -- 25
2019-08-01 14:00:00 32.5 14 Oeste 27 Oeste 0 -- -- 23
2019-08-01 13:00:00 31 10 Oeste 22 Oeste 0 -- -- 28
2019-08-01 12:00:00 28.5 10 Oeste 21 Oeste 0 -- -- 33
2019-08-01 11:00:00 26.6 9 Oeste 15 Oeste 0 -- -- 39
2019-08-01 10:00:00 24.3 8 Oeste 15 Sudoeste 0 -- -- 44
2019-08-01 09:00:00 22.5 11 Sudoeste 19 Sudoeste 0 -- -- 48
2019-08-01 08:00:00 20.9 14 Sudoeste 18 Sudoeste 0 -- -- 52
2019-08-01 07:00:00 21 12 Sudoeste 18 Oeste 0 -- -- 51
2019-08-01 06:00:00 21.4 12 Sudoeste 21 Sudoeste 0 -- -- 50
2019-08-01 05:00:00 22.1 13 Sudoeste 20 Sudoeste 0 -- -- 48
2019-08-01 04:00:00 22.7 12 Sudoeste 19 Sudoeste 0 -- -- 47
2019-08-01 03:00:00 23.7 12 Sudoeste 18 Sudoeste 0 -- -- 44
2019-08-01 02:00:00 24.7 11 Sudoeste 18 Sudoeste 0 -- -- 42
2019-08-01 01:00:00 26 12 Sudoeste 22 Oeste 0 -- -- 40
2019-08-01 00:00:00 26.7 12 Sudoeste 19 Oeste 0 -- -- 39
2019-07-31 23:00:00 27.7 10 Sudoeste 17 Oeste 0 -- -- 31
2019-07-31 22:00:00 28.4 11 Oeste 26 Oeste 0 -- -- 32
2019-07-31 21:00:00 30.1 17 Oeste 33 Oeste 0 -- -- 30
2019-07-31 20:00:00 32.3 18 Oeste 30 Oeste 0 -- -- 24
2019-07-31 19:00:00 34.6 10 Sudoeste 25 Oeste 0 -- -- 13
2019-07-31 18:00:00 35.3 11 Sudoeste 27 Sudoeste 0 -- -- 13
2019-07-31 17:00:00 35.2 12 Oeste 33 Sur 0 -- -- 14
2019-07-31 16:00:00 34.5 14 Sudoeste 27 Oeste 0 -- -- 15
2019-07-31 15:00:00 33.7 8 Sur 28 Sudoeste 0 -- -- 17
2019-07-31 14:00:00 32.3 10 Sur 27 Oeste 0 -- -- 17
2019-07-31 13:00:00 30.9 9 Sudoeste 17 Oeste 0 -- -- 22
2019-07-31 12:00:00 28.2 4 Norte 12 Este 0 -- -- 27
2019-07-31 11:00:00 25.4 6 Nordeste 12 Este 0 -- -- 33
2019-07-31 10:00:00 21.8 8 Oeste 13 Oeste 0 -- -- 39
2019-07-31 09:00:00 19.3 8 Oeste 15 Oeste 0 -- -- 45
2019-07-31 08:00:00 17.9 9 Oeste 15 Sudoeste 0 -- -- 49
2019-07-31 07:00:00 18.3 7 Oeste 20 Oeste 0 -- -- 48
2019-07-31 06:00:00 19 13 Sudoeste 21 Oeste 0 -- -- 46
2019-07-31 05:00:00 19.6 14 Sudoeste 22 Oeste 0 -- -- 43
2019-07-31 04:00:00 20.4 15 Sudoeste 21 Sudoeste 0 -- -- 36
2019-07-31 03:00:00 21.2 14 Sudoeste 21 Sudoeste 0 -- -- 30
2019-07-31 02:00:00 22.2 15 Oeste 22 Oeste 0 -- -- 28
2019-07-31 01:00:00 23 12 Sudoeste 21 Sudoeste 0 -- -- 26
2019-07-31 00:00:00 22.1 4 Sur 8 Sudeste 0 -- -- 29
2019-07-30 23:00:00 25.1 3 Nordeste 13 Norte 0 -- -- 24
2019-07-30 22:00:00 26.2 2 Noroeste 17 Noroeste 0 -- -- 23
2019-07-30 21:00:00 30.1 11 Noroeste 19 Noroeste 0 -- -- 20
2019-07-30 20:00:00 31 6 Norte 26 Norte 0 -- -- 20
2019-07-30 19:00:00 31.8 13 Noroeste 26 Norte 0 -- -- 18
2019-07-30 18:00:00 31.4 10 Noroeste 26 Norte 0 -- -- 19
2019-07-30 17:00:00 30.4 14 Noroeste 35 Sur 0 -- -- 21
2019-07-30 16:00:00 30.2 9 Norte 39 Noroeste 0 -- -- 21
2019-07-30 15:00:00 28.6 9 Nordeste 27 Nordeste 0 -- -- 23
2019-07-30 14:00:00 27 9 Norte 32 Noroeste 0 -- -- 26
2019-07-30 13:00:00 25.8 13 Norte 30 Noroeste 0 -- -- 27
2019-07-30 12:00:00 23.9 14 Norte 33 Noroeste 0 -- -- 31
2019-07-30 11:00:00 21.8 15 Norte 29 Noroeste 0 -- -- 37
2019-07-30 10:00:00 19.5 12 Norte 24 Noroeste 0 -- -- 45
2019-07-30 09:00:00 16.6 8 Noroeste 14 Oeste 0 -- -- 56
2019-07-30 08:00:00 14.5 3 Noroeste 12 Noroeste 0 -- -- 62
2019-07-30 07:00:00 14 4 Oeste 10 Oeste 0 -- -- 64
2019-07-30 06:00:00 15 4 Oeste 15 Oeste 0 -- -- 63
2019-07-30 05:00:00 15.8 9 Oeste 18 Noroeste 0 -- -- 61
2019-07-30 04:00:00 16.5 8 Oeste 21 Oeste 0 -- -- 59
2019-07-30 03:00:00 17.4 10 Oeste 22 Oeste 0 -- -- 56
2019-07-30 02:00:00 18.2 10 Oeste 24 Noroeste 0 -- -- 54
2019-07-30 01:00:00 19.2 11 Oeste 22 Oeste 0 -- -- 53
2019-07-30 00:00:00 20.6 13 Oeste 24 Oeste 0 -- -- 47
2019-07-29 23:00:00 22 14 Oeste 29 Oeste 0 -- -- 45
2019-07-29 22:00:00 23.9 15 Oeste 32 Oeste 0 -- -- 40
2019-07-29 21:00:00 26.9 19 Noroeste 39 Noroeste 0 -- -- 33
2019-07-29 20:00:00 29.2 22 Oeste 39 Noroeste 0 -- -- 26
2019-07-29 19:00:00 30.7 20 Noroeste 34 Oeste 0 -- -- 25
2019-07-29 18:00:00 31.3 15 Noroeste 36 Oeste 0 -- -- 23
2019-07-29 17:00:00 30.8 16 Noroeste 35 Oeste 0 -- -- 23
2019-07-29 16:00:00 30.4 19 Noroeste 35 Noroeste 0 -- -- 24
2019-07-29 15:00:00 29.4 20 Noroeste 33 Noroeste 0 -- -- 30
2019-07-29 14:00:00 28 16 Oeste 29 Oeste 0 -- -- 38
2019-07-29 13:00:00 27 12 Oeste 28 Noroeste 0 -- -- 44
2019-07-29 12:00:00 25.6 12 Noroeste 28 Oeste 0 -- -- 49
2019-07-29 11:00:00 23.8 10 Noroeste 22 Oeste 0 -- -- 43
2019-07-29 10:00:00 21.3 10 Noroeste 21 Noroeste 0 -- -- 47
2019-07-29 09:00:00 18.8 10 Oeste 21 Sudoeste 0 -- -- 49
2019-07-29 08:00:00 17.3 13 Sudoeste 21 Sudoeste 0 -- -- 51
2019-07-29 07:00:00 16.6 9 Sudoeste 17 Oeste 0 -- -- 54
2019-07-29 06:00:00 17 11 Sudoeste 19 Sudoeste 0 -- -- 55
2019-07-29 05:00:00 17.7 10 Sudoeste 21 Sudoeste 0 -- -- 56
2019-07-29 04:00:00 18.7 11 Sudoeste 18 Sudoeste 0 -- -- 55
2019-07-29 03:00:00 19.3 11 Sudoeste 20 Oeste 0 -- -- 58
2019-07-29 02:00:00 20.3 11 Oeste 19 Oeste 0 -- -- 57
2019-07-29 01:00:00 22.3 9 Oeste 21 Sudoeste 0 -- -- 49
2019-07-29 00:00:00 24 10 Oeste 28 Oeste 0 -- -- 49
2019-07-28 23:00:00 26.1 19 Oeste 32 Oeste 0 -- -- 43
2019-07-28 22:00:00 28.5 13 Oeste 28 Oeste 0 -- -- 34
2019-07-28 21:00:00 31 16 Oeste 25 Oeste 0 -- -- 29
2019-07-28 20:00:00 32.4 8 Noroeste 19 Norte 0 -- -- 27
2019-07-28 19:00:00 32.9 9 Sudoeste 22 Oeste 0 -- -- 26
2019-07-28 18:00:00 32.6 6 Sudeste 24 Sudoeste 0 -- -- 26
2019-07-28 17:00:00 32.1 10 Sudoeste 28 Oeste 0 -- -- 28
2019-07-28 16:00:00 30.7 10 Norte 22 Norte 0 -- -- 31
2019-07-28 15:00:00 30.6 9 Noroeste 23 Noroeste 0 -- -- 33
2019-07-28 14:00:00 29.9 7 Sudeste 24 Noroeste 0 -- -- 36
2019-07-28 13:00:00 28.6 7 Noroeste 17 Oeste 0 -- -- 40
2019-07-28 12:00:00 26.4 4 Este 13 Noroeste 0 -- -- 46
2019-07-28 11:00:00 24 4 Noroeste 10 Norte 0 -- -- 53
2019-07-28 10:00:00 21.8 4 Noroeste 10 Oeste 0 -- -- 61
2019-07-28 09:00:00 19.3 7 Oeste 12 Oeste 0 -- -- 72
2019-07-28 08:00:00 17.7 7 Oeste 13 Oeste 0 -- -- 77
2019-07-28 07:00:00 17.5 10 Sudoeste 18 Sudoeste 0 -- -- 78
2019-07-28 06:00:00 17.6 9 Sudoeste 15 Sudoeste 0 -- -- 78
2019-07-28 05:00:00 18 8 Sudoeste 15 Oeste 0 -- -- 76
2019-07-28 04:00:00 18.6 10 Sudoeste 19 Sudoeste 0 -- -- 74
2019-07-28 03:00:00 19.2 12 Sudoeste 19 Sudoeste 0 -- -- 71
2019-07-28 02:00:00 19.8 10 Sudoeste 17 Sudoeste 0 -- -- 68
2019-07-28 01:00:00 20.3 10 Oeste 21 Oeste 0 -- -- 66
2019-07-28 00:00:00 21.3 10 Oeste 21 Oeste 0 -- -- 61
2019-07-27 23:00:00 22.3 11 Sudoeste 19 Sudoeste 0 -- -- 52
2019-07-26 12:00:00 -- -- -- -- -- -- -- -- --
2019-07-26 11:00:00 -- -- -- -- -- -- -- -- --
2019-07-26 10:00:00 20.8 12 Noroeste 21 Oeste 0 -- -- 51
2019-07-26 09:00:00 18.1 13 Oeste 25 Oeste 0 -- -- 62
2019-07-26 08:00:00 16.6 13 Sudoeste 19 Oeste 0 -- -- 72
2019-07-26 07:00:00 16 11 Sudoeste 20 Oeste 0 -- -- 76
2019-07-26 06:00:00 16.4 12 Sudoeste 22 Oeste 0 -- -- 75
2019-07-26 05:00:00 17.2 13 Oeste 22 Oeste 0 -- -- 73
2019-07-26 04:00:00 18.8 11 Oeste 24 Sudoeste 0 -- -- 70
2019-07-26 03:00:00 20.1 8 Oeste 23 Oeste 0 -- -- 70
2019-07-26 02:00:00 21 11 Oeste 28 Oeste 0 -- -- 69
2019-07-26 01:00:00 22 14 Oeste 24 Oeste 0 -- -- 67
2019-07-26 00:00:00 23 14 Oeste 33 Oeste 0 -- -- 65
2019-07-25 23:00:00 23.4 19 Oeste 36 Oeste 0 -- -- 65
2019-07-25 22:00:00 25.8 19 Oeste 41 Oeste 0 -- -- 59
2019-07-25 21:00:00 29.7 15 Oeste 30 Oeste 0 -- -- 38
2019-07-25 20:00:00 31.9 15 Oeste 41 Sur 0 -- -- 32
2019-07-25 19:00:00 33.3 14 Oeste 31 Sudoeste 0 -- -- 30
2019-07-25 18:00:00 33.7 17 Sudoeste 31 Sudoeste 0 -- -- 21
2019-07-25 17:00:00 33.9 17 Oeste 31 Oeste 0 -- -- 23
2019-07-25 16:00:00 33 21 Sudoeste 37 Oeste 0 -- -- 28
2019-07-25 15:00:00 33 14 Sudoeste 32 Oeste 0 -- -- 28
2019-07-25 14:00:00 32.4 14 Sudoeste 30 Sudoeste 0 -- -- 30
2019-07-25 13:00:00 31.4 8 Sudoeste 27 Sur 0 -- -- 33
2019-07-25 12:00:00 30.5 6 Oeste 24 Oeste 0 -- -- 35
2019-07-25 11:00:00 28.3 8 Noroeste 18 Sudoeste 0 -- -- 43
2019-07-25 10:00:00 25.4 8 Oeste 17 Oeste 0 -- -- 52
2019-07-25 09:00:00 23.9 11 Sudoeste 22 Sudoeste 0 -- -- 55
2019-07-25 08:00:00 20.2 2 Nordeste 14 Sudoeste 0 -- -- 53
2019-07-25 07:00:00 23 12 Sudoeste 16 Sudoeste 0 -- -- 51
2019-07-25 06:00:00 22.8 12 Sudoeste 15 Sudoeste 0 -- -- 49
2019-07-25 05:00:00 24.2 7 Sudoeste 18 Sudoeste 0 -- -- 42
2019-07-25 04:00:00 24.7 9 Sudoeste 15 Sudoeste 0 -- -- 44
2019-07-25 03:00:00 24.7 8 Sudoeste 14 Sudoeste 0 -- -- 42
2019-07-25 02:00:00 25.2 7 Sudoeste 15 Oeste 0 -- -- 38
2019-07-25 01:00:00 26.7 10 Sudoeste 21 Oeste 0 -- -- 38
2019-07-25 00:00:00 28.2 10 Oeste 20 Sudoeste 0 -- -- 37
2019-07-24 23:00:00 30.2 10 Oeste 26 Oeste 0 -- -- 33
2019-07-24 22:00:00 32.3 13 Oeste 28 Oeste 0 -- -- 25
2019-07-24 21:00:00 35.2 14 Oeste 27 Oeste 0 -- -- 24
2019-07-24 20:00:00 36.5 15 Oeste 29 Sudoeste 0 -- -- 22
2019-07-24 19:00:00 37.1 13 Oeste 33 Sudoeste 0 -- -- 22
2019-07-24 18:00:00 37.7 10 Sudoeste 31 Oeste 0 -- -- 21
2019-07-24 17:00:00 37.2 15 Sur 30 Sur 0 -- -- 23
2019-07-24 16:00:00 37.4 10 Sudoeste 28 Sudeste 0 -- -- 23
2019-07-24 15:00:00 36.9 9 Sudoeste 25 Oeste 0 -- -- 25
2019-07-24 14:00:00 35.4 10 Sudoeste 22 Sudoeste 0 -- -- 26
2019-07-24 13:00:00 34.7 10 Sur 23 Sudoeste 0 -- -- 26
2019-07-24 12:00:00 32.5 5 Sur 13 Nordeste 0 -- -- 28
2019-07-24 11:00:00 29.1 4 Nordeste 10 Nordeste 0 -- -- 39
2019-07-24 10:00:00 26.4 5 Nordeste 12 Nordeste 0 -- -- 45
2019-07-24 09:00:00 23.5 5 Nordeste 8 Este 0 -- -- 51
2019-07-24 08:00:00 19.9 3 Sudeste 4 Sur 0 -- -- 62
2019-07-24 07:00:00 20.5 0 Calma 14 Sudoeste 0 -- -- 59
2019-07-24 06:00:00 23 11 Sudoeste 14 Sudoeste 0 -- -- 53
2019-07-24 05:00:00 22.7 8 Sudoeste 15 Sudoeste 0 -- -- 55
2019-07-24 04:00:00 22.2 0 Calma 4 Sur 0 -- -- 55
2019-07-24 03:00:00 23.5 2 Sudoeste 10 Sur 0 -- -- 52
2019-07-24 02:00:00 24.2 5 Sur 13 Sudoeste 0 -- -- 49
2019-07-24 01:00:00 26.1 10 Sudoeste 18 Oeste 0 -- -- 47
2019-07-24 00:00:00 27.8 10 Oeste 17 Oeste 0 -- -- 36